Time;durP1;ratioP1;P1;durP2;ratioP2;P2;SDS_P1;SDS_P2;PMS_P1;PMS_P2;Temp;Humidity;BMP_temperature;BMP_pressure;BME280_temperature;BME280_humidity;BME280_pressure;Samples;Min_cycle;Max_cycle;Signal;HPM_P1;HPM_P2
2021/11/13 00:01:58;;;;;;;252.70;110.17;;;;;;;0.16;76.30;95068.41;1616651;88;21003;-68
2021/11/13 00:04:25;;;;;;;228.83;97.00;;;;;;;0.17;76.18;95065.90;1623950;87;21636;-68
2021/11/13 00:06:53;;;;;;;203.22;90.05;;;;;;;0.19;76.21;95075.77;1675460;84;21000;-67
2021/11/13 00:09:19;;;;;;;203.10;88.97;;;;;;;0.21;76.16;95070.00;1648366;86;21032;-67
2021/11/13 00:11:46;;;;;;;267.68;111.45;;;;;;;0.27;76.02;95073.91;1644805;87;21035;-65
2021/11/13 00:14:17;;;;;;;256.80;100.38;;;;;;;0.28;75.67;95072.19;1628699;86;21011;-67
2021/11/13 00:16:41;;;;;;;282.68;117.08;;;;;;;0.27;75.63;95080.11;1625537;86;20967;-67
2021/11/13 00:19:10;;;;;;;278.75;116.65;;;;;;;0.21;75.72;95070.76;1640038;86;21808;-67
2021/11/13 00:21:36;;;;;;;274.40;109.70;;;;;;;0.22;75.94;95077.72;1684288;84;21058;-68
2021/11/13 00:24:04;;;;;;;260.05;104.72;;;;;;;0.20;75.94;95071.91;1669871;84;21519;-66
2021/11/13 00:26:31;;;;;;;284.15;115.82;;;;;;;0.16;75.99;95068.97;1666376;84;21141;-66
2021/11/13 00:28:57;;;;;;;286.32;113.00;;;;;;;0.17;76.16;95074.02;1669741;85;21022;-67
2021/11/13 00:31:24;;;;;;;243.52;99.62;;;;;;;0.20;76.07;95073.27;1671938;84;21816;-67
2021/11/13 00:33:50;;;;;;;229.38;99.70;;;;;;;0.22;75.78;95071.55;1671183;84;21011;-68
2021/11/13 00:36:17;;;;;;;207.45;87.60;;;;;;;0.18;75.64;95070.16;1658654;85;20979;-67
2021/11/13 00:38:43;;;;;;;234.35;97.25;;;;;;;0.15;75.49;95074.17;1664092;84;21121;-67
2021/11/13 00:41:10;;;;;;;248.25;99.72;;;;;;;0.10;75.73;95069.91;1669507;85;21118;-67
2021/11/13 00:43:36;;;;;;;241.40;101.82;;;;;;;0.07;75.52;95063.86;1672841;84;21846;-67
2021/11/13 00:46:04;;;;;;;232.00;96.67;;;;;;;0.05;75.59;95068.88;1677623;84;21058;-66
2021/11/13 00:48:31;;;;;;;233.93;97.08;;;;;;;0.08;75.74;95065.42;1670065;85;20963;-67
2021/11/13 00:50:57;;;;;;;238.57;96.75;;;;;;;0.15;75.55;95066.85;1640169;87;21080;-69
2021/11/13 00:53:24;;;;;;;254.93;104.10;;;;;;;0.17;75.37;95066.46;1643160;86;21066;-66
2021/11/13 00:55:50;;;;;;;272.23;109.78;;;;;;;0.16;75.17;95066.27;1595236;88;21145;-68
2021/11/13 00:58:17;;;;;;;293.80;115.52;;;;;;;0.10;75.23;95055.03;1598783;88;21026;-67
2021/11/13 01:00:44;;;;;;;264.63;108.55;;;;;;;0.04;75.39;95053.80;1605971;87;21058;-68
2021/11/13 01:03:10;;;;;;;239.40;101.12;;;;;;;0.04;75.47;95050.33;1603612;88;21490;-66
2021/11/13 01:05:38;;;;;;;234.67;98.33;;;;;;;0.01;75.57;95054.55;1598562;88;21139;-67
2021/11/13 01:08:06;;;;;;;232.00;97.53;;;;;;;0.00;75.58;95052.99;1610976;88;21229;-68
2021/11/13 01:10:32;;;;;;;219.10;93.37;;;;;;;0.03;75.72;95046.08;1615143;88;21595;-67
2021/11/13 01:12:59;;;;;;;217.70;89.07;;;;;;;0.07;75.57;95050.34;1612668;87;21629;-69
2021/11/13 01:15:26;;;;;;;224.12;91.70;;;;;;;0.11;75.29;95040.36;1590673;88;21119;-67
2021/11/13 01:17:54;;;;;;;201.18;87.65;;;;;;;0.06;75.21;95046.09;1635936;86;21062;-67
2021/11/13 01:20:20;;;;;;;205.05;88.55;;;;;;;0.04;75.23;95043.57;1637396;86;21138;-67
2021/11/13 01:22:49;;;;;;;195.68;82.80;;;;;;;-0.02;75.30;95039.08;1659015;86;21079;-68
2021/11/13 01:25:16;;;;;;;246.07;100.85;;;;;;;-0.09;75.20;95034.73;1634498;86;21019;-68
2021/11/13 01:27:44;;;;;;;229.75;97.37;;;;;;;-0.19;75.22;95026.73;1651839;86;21610;-67
2021/11/13 01:30:13;;;;;;;249.47;100.67;;;;;;;-0.22;75.64;95026.72;1644446;86;20997;-67
2021/11/13 01:32:41;;;;;;;211.95;89.83;;;;;;;-0.22;75.60;95022.07;1644292;86;21162;-67
2021/11/13 01:35:09;;;;;;;184.48;85.85;;;;;;;-0.18;75.73;95030.22;1654171;86;20975;-67
2021/11/13 01:37:35;;;;;;;197.98;83.97;;;;;;;-0.17;75.52;95022.31;1649760;86;21463;-68
2021/11/13 01:40:05;;;;;;;192.60;83.07;;;;;;;-0.17;75.38;95019.61;1667969;84;20980;-68
2021/11/13 01:42:33;;;;;;;186.43;84.13;;;;;;;-0.19;75.42;95012.45;1647331;86;21038;-67
2021/11/13 01:45:01;;;;;;;183.18;80.12;;;;;;;-0.16;75.73;95016.55;1619456;87;21241;-67
2021/11/13 01:47:27;;;;;;;188.15;81.75;;;;;;;-0.07;75.48;95014.89;1612738;88;21037;-65
2021/11/13 01:49:55;;;;;;;207.00;81.65;;;;;;;-0.05;75.39;95013.34;1609493;88;21578;-68
2021/11/13 01:52:23;;;;;;;182.02;76.22;;;;;;;-0.09;75.27;95021.22;1616785;87;21217;-68
2021/11/13 01:54:50;;;;;;;192.28;83.60;;;;;;;-0.15;75.36;95017.31;1611759;87;21103;-68
2021/11/13 01:57:23;;;;;;;181.95;80.85;;;;;;;-0.18;75.50;95016.70;1647476;86;21171;-68
2021/11/13 01:59:52;;;;;;;178.50;77.97;;;;;;;-0.20;75.62;95013.60;1636666;86;21436;-67
2021/11/13 02:02:19;;;;;;;182.35;82.40;;;;;;;-0.14;75.77;95021.56;1633118;86;21019;-68
2021/11/13 02:04:46;;;;;;;180.42;80.17;;;;;;;-0.13;75.55;95013.09;1627816;86;21513;-67
2021/11/13 02:07:13;;;;;;;237.30;94.90;;;;;;;-0.11;75.48;95012.70;1635866;86;20985;-67
2021/11/13 02:09:40;;;;;;;286.77;100.85;;;;;;;-0.16;75.31;95011.70;1676484;85;21145;-66
2021/11/13 02:12:09;;;;;;;238.57;92.15;;;;;;;-0.24;75.34;95016.85;1649381;86;21449;-67
2021/11/13 02:14:37;;;;;;;193.28;76.62;;;;;;;-0.32;75.38;95011.16;1672783;84;21053;-67
2021/11/13 02:17:04;;;;;;;204.28;81.37;;;;;;;-0.43;75.53;95008.35;1642291;84;21474;-67
2021/11/13 02:19:31;;;;;;;163.60;75.52;;;;;;;-0.54;75.31;95012.09;1676610;84;20975;-66
2021/11/13 02:22:00;;;;;;;166.73;73.37;;;;;;;-0.65;75.74;95014.69;1655349;85;22469;-69
2021/11/13 02:24:26;;;;;;;137.28;63.58;;;;;;;-0.69;76.06;95007.69;1647623;86;21019;-68
2021/11/13 02:26:54;;;;;;;132.52;57.50;;;;;;;-0.69;76.22;95005.77;1661768;84;21042;-68
2021/11/13 02:29:21;;;;;;;148.00;64.72;;;;;;;-0.70;76.28;95004.22;1680435;84;21086;-68
2021/11/13 02:31:48;;;;;;;134.10;61.23;;;;;;;-0.71;76.36;95006.72;1670035;84;20967;-68
2021/11/13 02:34:15;;;;;;;162.00;66.40;;;;;;;-0.71;76.47;95001.87;1676848;84;21163;-67
2021/11/13 02:36:42;;;;;;;146.72;63.52;;;;;;;-0.71;76.57;95000.53;1689768;84;21002;-68
2021/11/13 02:39:11;;;;;;;147.35;61.08;;;;;;;-0.67;76.65;95001.34;1654698;85;21539;-67
2021/11/13 02:41:42;;;;;;;144.37;62.43;;;;;;;-0.67;76.62;95001.34;1670766;84;21016;-67
2021/11/13 02:44:08;;;;;;;148.00;67.25;;;;;;;-0.66;76.62;94994.78;1667069;85;21077;-67
2021/11/13 02:46:35;;;;;;;137.82;60.15;;;;;;;-0.65;76.78;94994.98;1667418;85;21166;-67
2021/11/13 02:49:04;;;;;;;134.27;60.67;;;;;;;-0.59;76.97;94992.94;1678942;84;21087;-68
2021/11/13 02:51:31;;;;;;;151.95;66.87;;;;;;;-0.45;77.17;94991.73;1685706;84;21030;-67
2021/11/13 02:53:57;;;;;;;156.18;69.10;;;;;;;-0.32;76.73;94999.00;1631903;86;21086;-68
2021/11/13 02:56:24;;;;;;;159.45;67.95;;;;;;;-0.28;76.41;95002.50;1631328;86;21065;-67
2021/11/13 02:58:50;;;;;;;144.15;62.55;;;;;;;-0.25;76.28;95001.20;1633140;86;21148;-68
2021/11/13 03:01:20;;;;;;;120.57;56.35;;;;;;;-0.22;76.20;94999.69;1647155;87;21027;-67
2021/11/13 03:03:54;;;;;;;122.07;56.60;;;;;;;-0.14;76.08;95005.34;1641005;86;20980;-67
2021/11/13 03:06:23;;;;;;;132.65;60.15;;;;;;;-0.04;75.79;95002.73;1639817;86;21082;-67
2021/11/13 03:08:51;;;;;;;176.45;74.62;;;;;;;0.03;75.34;95001.45;1628662;86;20968;-67
2021/11/13 03:11:19;;;;;;;170.85;73.28;;;;;;;0.07;75.17;94997.61;1625080;87;21507;-70
2021/11/13 03:13:51;;;;;;;155.63;70.20;;;;;;;0.12;74.89;94997.84;1637118;86;21102;-67
2021/11/13 03:16:18;;;;;;;164.50;71.82;;;;;;;0.13;74.64;95000.19;1645608;85;21067;-67
2021/11/13 03:18:45;;;;;;;173.85;77.60;;;;;;;0.08;74.39;94997.05;1647486;85;21048;-68
2021/11/13 03:21:14;;;;;;;153.57;66.62;;;;;;;-0.10;74.42;94996.13;1683968;85;21121;-67
2021/11/13 03:23:45;;;;;;;127.20;57.10;;;;;;;-0.18;74.54;94993.73;1680571;84;21125;-68
2021/11/13 03:26:24;;;;;;;140.68;60.45;;;;;;;-0.30;74.55;94989.94;1668554;84;21403;-68
2021/11/13 03:29:04;;;;;;;127.15;55.08;;;;;;;-0.45;74.74;94989.62;1674340;84;21194;-68
2021/11/13 03:31:31;;;;;;;136.00;63.38;;;;;;;-0.54;75.08;94993.19;1660906;85;21028;-68
2021/11/13 03:34:00;;;;;;;140.75;65.08;;;;;;;-0.60;75.21;94996.03;1667798;85;21114;-67
2021/11/13 03:36:27;;;;;;;113.95;53.95;;;;;;;-0.62;75.77;94990.22;1666790;84;21164;-68
2021/11/13 03:38:53;;;;;;;123.00;56.65;;;;;;;-0.61;75.61;94989.84;1687709;84;21082;-68
2021/11/13 03:41:22;;;;;;;122.53;54.55;;;;;;;-0.61;75.62;94991.77;1675360;85;21016;-67
2021/11/13 03:43:48;;;;;;;113.83;54.05;;;;;;;-0.62;75.85;94995.63;1671498;85;21048;-67
2021/11/13 03:46:15;;;;;;;123.07;53.55;;;;;;;-0.56;75.89;94988.73;1668241;84;21026;-67
2021/11/13 03:48:43;;;;;;;109.35;52.25;;;;;;;-0.50;75.92;94991.29;1687693;84;21168;-67
2021/11/13 03:51:09;;;;;;;129.75;55.95;;;;;;;-0.43;75.98;94985.39;1680525;84;20972;-66
2021/11/13 03:53:36;;;;;;;108.12;52.65;;;;;;;-0.37;75.78;94986.59;1683920;84;21091;-68
2021/11/13 03:56:04;;;;;;;112.03;53.50;;;;;;;-0.31;75.80;94982.98;1678823;84;20976;-68
2021/11/13 03:58:31;;;;;;;130.87;59.13;;;;;;;-0.25;75.59;94985.57;1683123;84;21224;-68
2021/11/13 04:00:58;;;;;;;157.10;66.15;;;;;;;-0.22;75.33;94984.82;1681763;84;21163;-68
2021/11/13 04:03:25;;;;;;;158.03;67.80;;;;;;;-0.24;75.12;94987.88;1686005;84;21026;-68
2021/11/13 04:05:51;;;;;;;159.37;66.70;;;;;;;-0.32;75.01;94982.78;1686122;84;20982;-68
2021/11/13 04:08:18;;;;;;;131.80;57.20;;;;;;;-0.43;74.98;94985.98;1659719;86;21506;-68
2021/11/13 04:10:47;;;;;;;124.02;56.58;;;;;;;-0.56;74.99;94987.38;1650402;86;21524;-69
2021/11/13 04:13:14;;;;;;;114.17;55.15;;;;;;;-0.69;75.26;94987.42;1666778;84;21176;-68
2021/11/13 04:15:40;;;;;;;126.80;65.57;;;;;;;-0.76;75.72;94980.61;1667612;84;21159;-68
2021/11/13 04:18:08;;;;;;;98.10;49.75;;;;;;;-0.69;76.35;94982.02;1675369;84;21463;-68
2021/11/13 04:20:35;;;;;;;112.45;51.58;;;;;;;-0.61;76.06;94975.56;1645748;86;21015;-68
2021/11/13 04:23:02;;;;;;;203.00;79.17;;;;;;;-0.61;75.87;94972.87;1679120;84;21035;-69
2021/11/13 04:25:29;;;;;;;138.40;60.80;;;;;;;-0.65;75.65;94978.78;1673946;84;21174;-68
2021/11/13 04:27:57;;;;;;;137.52;60.23;;;;;;;-0.70;75.81;94979.13;1664133;85;21058;-67
2021/11/13 04:30:25;;;;;;;128.07;58.28;;;;;;;-0.71;75.85;94970.81;1675170;84;20990;-68
2021/11/13 04:32:52;;;;;;;146.20;62.17;;;;;;;-0.67;75.71;94972.42;1657904;86;21526;-68
2021/11/13 04:35:22;;;;;;;138.75;62.45;;;;;;;-0.66;75.59;94969.13;1622934;86;21093;-65
2021/11/13 04:37:53;;;;;;;120.70;57.90;;;;;;;-0.68;75.62;94969.52;1640133;86;21146;-67
2021/11/13 04:40:24;;;;;;;141.88;63.10;;;;;;;-0.70;75.62;94966.97;1643290;86;21067;-68
2021/11/13 04:42:51;;;;;;;154.25;62.38;;;;;;;-0.72;75.78;94963.30;1619530;87;21128;-67
2021/11/13 04:45:20;;;;;;;132.67;58.98;;;;;;;-0.67;75.99;94962.97;1621727;87;21570;-68
2021/11/13 04:47:48;;;;;;;120.25;58.25;;;;;;;-0.69;75.92;94956.37;1646592;86;21039;-67
2021/11/13 04:50:17;;;;;;;136.22;57.30;;;;;;;-0.73;76.03;94959.05;1629089;86;21173;-67
2021/11/13 04:52:45;;;;;;;151.60;60.58;;;;;;;-0.81;76.05;94964.16;1689905;84;21013;-67
2021/11/13 04:55:13;;;;;;;138.22;59.67;;;;;;;-0.86;76.23;94956.95;1643914;86;21497;-67
2021/11/13 04:57:41;;;;;;;139.77;61.77;;;;;;;-0.88;76.40;94961.95;1641701;86;21561;-67
2021/11/13 05:00:12;;;;;;;147.35;61.37;;;;;;;-0.85;76.45;94955.81;1663202;85;21015;-64
2021/11/13 05:02:39;;;;;;;146.22;61.05;;;;;;;-0.78;76.86;94957.25;1678286;84;21858;-68
2021/11/13 05:05:07;;;;;;;147.45;61.85;;;;;;;-0.65;76.58;94957.17;1669883;84;21010;-69
2021/11/13 05:07:35;;;;;;;124.80;57.40;;;;;;;-0.61;76.27;94959.36;1681707;84;21014;-68
2021/11/13 05:10:02;;;;;;;111.30;54.25;;;;;;;-0.61;76.27;94968.81;1680354;84;21021;-66
2021/11/13 05:12:29;;;;;;;118.42;57.55;;;;;;;-0.63;76.18;94964.36;1680606;84;21010;-68
2021/11/13 05:14:55;;;;;;;123.18;57.50;;;;;;;-0.60;76.36;94967.08;1672267;85;21132;-67
2021/11/13 05:17:22;;;;;;;109.45;50.15;;;;;;;-0.57;76.29;94966.33;1656320;84;21216;-68
2021/11/13 05:19:49;;;;;;;101.45;47.78;;;;;;;-0.55;76.16;94972.72;1689525;84;20983;-68
2021/11/13 05:22:16;;;;;;;116.30;52.38;;;;;;;-0.60;75.92;94977.12;1657015;85;21576;-67
2021/11/13 05:24:44;;;;;;;94.00;42.93;;;;;;;-0.68;75.88;94975.47;1617807;86;21050;-68
2021/11/13 05:27:10;;;;;;;125.05;56.50;;;;;;;-0.79;76.01;94974.60;1657239;84;21135;-68
2021/11/13 05:29:38;;;;;;;114.52;53.33;;;;;;;-0.81;76.51;94976.90;1607306;86;21131;-68
2021/11/13 05:32:07;;;;;;;129.12;53.25;;;;;;;-0.80;76.64;94981.15;1616309;87;21058;-67
2021/11/13 05:34:33;;;;;;;142.32;55.70;;;;;;;-0.74;76.74;94979.66;1628847;86;20983;-67
2021/11/13 05:37:00;;;;;;;130.67;57.60;;;;;;;-0.70;76.67;94977.77;1640611;86;21038;-67
2021/11/13 05:39:28;;;;;;;103.50;51.98;;;;;;;-0.63;76.72;94983.27;1652641;86;21626;-67
2021/11/13 05:41:56;;;;;;;103.32;47.78;;;;;;;-0.52;76.88;94983.58;1665922;85;21085;-67
2021/11/13 05:44:24;;;;;;;105.55;50.30;;;;;;;-0.41;76.32;94985.03;1669961;84;21068;-68
2021/11/13 05:46:54;;;;;;;145.85;59.60;;;;;;;-0.38;75.92;94982.93;1664175;85;21593;-68
2021/11/13 05:49:19;;;;;;;130.40;60.12;;;;;;;-0.35;75.83;94992.98;1673198;84;21439;-68
2021/11/13 05:51:48;;;;;;;167.13;64.95;;;;;;;-0.36;75.72;94995.49;1684328;84;21200;-67
2021/11/13 05:54:15;;;;;;;138.77;61.65;;;;;;;-0.38;75.82;94991.03;1685783;84;21487;-68
2021/11/13 05:56:42;;;;;;;161.77;70.12;;;;;;;-0.37;75.81;94992.00;1670971;85;21088;-68
2021/11/13 05:59:09;;;;;;;159.00;68.12;;;;;;;-0.33;75.70;94991.48;1681337;84;20979;-68
2021/11/13 06:01:38;;;;;;;132.65;61.20;;;;;;;-0.26;75.84;94994.83;1670470;84;21007;-67
2021/11/13 06:04:06;;;;;;;120.17;55.80;;;;;;;-0.17;75.81;94996.63;1664086;84;21019;-67
2021/11/13 06:06:34;;;;;;;123.67;56.53;;;;;;;-0.03;75.58;95002.93;1668454;85;20971;-68
2021/11/13 06:09:00;;;;;;;122.82;60.25;;;;;;;0.04;75.20;95006.47;1667267;85;21064;-68
2021/11/13 06:11:26;;;;;;;173.97;83.03;;;;;;;0.13;75.27;95002.89;1684384;84;21022;-69
2021/11/13 06:13:53;;;;;;;210.32;91.30;;;;;;;0.23;75.05;95004.89;1650137;85;20976;-66
2021/11/13 06:16:20;;;;;;;176.47;82.75;;;;;;;0.28;74.90;95001.86;1679232;84;21165;-67
2021/11/13 06:18:46;;;;;;;291.05;113.22;;;;;;;0.25;74.81;95005.28;1643117;85;21030;-69
2021/11/13 06:21:15;;;;;;;199.42;90.05;;;;;;;0.24;74.67;95004.33;1684503;84;21035;-67
2021/11/13 06:23:45;;;;;;;256.63;119.82;;;;;;;0.22;74.57;95010.69;1685464;84;20951;-68
2021/11/13 06:26:14;;;;;;;202.72;100.90;;;;;;;0.17;74.37;95009.10;1673011;84;20976;-67
2021/11/13 06:28:40;;;;;;;187.22;87.35;;;;;;;0.13;74.35;95005.59;1650012;85;21218;-68
2021/11/13 06:31:08;;;;;;;152.87;76.17;;;;;;;0.12;74.44;95002.70;1658881;84;21077;-68
2021/11/13 06:33:37;;;;;;;123.47;64.90;;;;;;;0.10;74.62;95010.41;1681085;84;21195;-69
2021/11/13 06:36:05;;;;;;;150.45;68.12;;;;;;;0.13;74.91;95008.30;1683581;84;21522;-67
2021/11/13 06:38:33;;;;;;;131.10;65.35;;;;;;;0.18;75.16;95007.95;1688054;84;20994;-68
2021/11/13 06:40:59;;;;;;;144.30;64.77;;;;;;;0.29;75.46;95007.47;1657288;85;21226;-68
2021/11/13 06:43:26;;;;;;;128.42;60.90;;;;;;;0.42;75.53;95003.28;1664328;84;20999;-70
2021/11/13 06:45:52;;;;;;;129.68;65.65;;;;;;;0.54;75.37;95002.20;1682550;84;21482;-68
2021/11/13 06:48:20;;;;;;;148.65;67.15;;;;;;;0.61;75.47;94998.96;1690182;84;21014;-67
2021/11/13 06:50:47;;;;;;;156.97;80.17;;;;;;;0.71;75.41;94998.27;1682364;84;21046;-69
2021/11/13 06:53:14;;;;;;;176.45;85.53;;;;;;;0.87;75.65;94996.03;1691438;84;21121;-69
2021/11/13 06:55:41;;;;;;;182.53;89.03;;;;;;;1.09;75.52;94990.12;1686261;84;21193;-67
2021/11/13 06:58:11;;;;;;;163.25;89.10;;;;;;;1.27;74.75;94983.63;1673842;84;21102;-68
2021/11/13 07:00:38;;;;;;;149.42;71.28;;;;;;;1.33;74.30;94989.45;1679898;84;21007;-68
2021/11/13 07:03:04;;;;;;;159.30;79.53;;;;;;;1.31;73.97;94988.47;1642026;86;21075;-69
2021/11/13 07:05:32;;;;;;;143.05;68.22;;;;;;;1.34;74.06;94994.47;1635216;86;21859;-68
2021/11/13 07:07:59;;;;;;;115.77;57.58;;;;;;;1.40;73.94;94987.55;1621932;87;21001;-69
2021/11/13 07:10:28;;;;;;;128.65;67.82;;;;;;;1.40;73.82;94979.98;1674734;85;21022;-67
2021/11/13 07:12:56;;;;;;;126.38;66.50;;;;;;;1.36;73.99;94975.14;1642939;85;21075;-69
2021/11/13 07:15:24;;;;;;;131.63;67.58;;;;;;;1.42;74.33;94974.38;1661257;84;20988;-68
2021/11/13 07:17:51;;;;;;;117.25;54.50;;;;;;;1.55;74.14;94981.00;1661347;84;21957;-68
2021/11/13 07:20:19;;;;;;;108.65;51.83;;;;;;;1.65;74.00;94980.23;1667497;85;21151;-69
2021/11/13 07:22:46;;;;;;;77.47;43.33;;;;;;;1.67;73.98;94977.16;1674432;84;21007;-73
2021/11/13 07:25:14;;;;;;;124.80;59.05;;;;;;;1.72;74.00;94969.39;1665943;84;20994;-70
2021/11/13 07:27:44;;;;;;;96.63;53.17;;;;;;;1.76;73.96;94968.84;1669184;84;20979;-69
2021/11/13 07:30:16;;;;;;;158.93;78.22;;;;;;;1.88;74.00;94969.80;1652672;85;21150;-68
2021/11/13 07:32:43;;;;;;;145.17;70.78;;;;;;;2.03;73.96;94973.52;1682700;84;21219;-68
2021/11/13 07:35:10;;;;;;;122.65;60.52;;;;;;;2.15;73.67;94970.39;1677913;84;21491;-68
2021/11/13 07:37:36;;;;;;;141.65;69.70;;;;;;;2.25;73.36;94960.70;1642433;86;21496;-70
2021/11/13 07:40:05;;;;;;;110.08;59.27;;;;;;;2.28;73.44;94957.20;1646267;86;21101;-69
2021/11/13 07:42:32;;;;;;;108.15;55.83;;;;;;;2.36;73.38;94964.19;1644596;86;22054;-68
2021/11/13 07:44:59;;;;;;;79.75;44.63;;;;;;;2.40;73.41;94957.61;1632702;86;21505;-68
2021/11/13 07:47:26;;;;;;;70.60;40.95;;;;;;;2.48;73.37;94957.02;1671771;84;21058;-69
2021/11/13 07:49:53;;;;;;;104.67;48.17;;;;;;;2.61;73.33;94952.70;1676593;84;21697;-68
2021/11/13 07:52:20;;;;;;;104.85;49.40;;;;;;;2.72;73.17;94952.11;1671479;84;21385;-69
2021/11/13 07:54:47;;;;;;;91.02;47.83;;;;;;;2.82;73.05;94951.29;1650449;85;21290;-67
2021/11/13 07:57:14;;;;;;;84.25;46.83;;;;;;;2.93;72.98;94946.04;1686259;84;21074;-67
2021/11/13 07:59:42;;;;;;;82.72;46.10;;;;;;;3.07;72.82;94946.56;1667233;84;21492;-70
2021/11/13 08:02:09;;;;;;;87.45;45.70;;;;;;;3.20;72.70;94947.69;1671829;85;21463;-69
2021/11/13 08:04:35;;;;;;;77.78;43.63;;;;;;;3.34;72.42;94942.16;1678206;84;21023;-69
2021/11/13 08:07:03;;;;;;;84.85;47.40;;;;;;;3.48;72.26;94938.02;1679649;84;21967;-68
2021/11/13 08:09:30;;;;;;;84.05;40.43;;;;;;;3.66;71.92;94936.15;1668860;84;21530;-68
2021/11/13 08:11:58;;;;;;;58.73;33.70;;;;;;;3.83;71.49;94940.70;1685391;84;21583;-68
2021/11/13 08:14:24;;;;;;;58.40;33.63;;;;;;;3.96;70.83;94937.70;1650715;85;21561;-70
2021/11/13 08:16:52;;;;;;;65.80;34.45;;;;;;;4.06;70.22;94940.92;1643960;86;20981;-68
2021/11/13 08:19:19;;;;;;;64.80;31.97;;;;;;;4.20;69.97;94940.05;1650406;86;21147;-69
2021/11/13 08:21:45;;;;;;;55.38;29.70;;;;;;;4.41;69.41;94938.51;1645306;86;21081;-69
2021/11/13 08:24:12;;;;;;;60.63;32.35;;;;;;;4.63;69.07;94933.80;1640974;86;21183;-69
2021/11/13 08:26:40;;;;;;;64.72;34.18;;;;;;;4.87;68.68;94934.15;1648514;86;21498;-68
2021/11/13 08:29:08;;;;;;;63.20;34.88;;;;;;;5.06;68.14;94926.73;1656151;85;21082;-69
2021/11/13 08:31:35;;;;;;;58.00;31.95;;;;;;;5.25;67.69;94930.95;1660420;85;21825;-67
2021/11/13 08:34:03;;;;;;;51.77;30.60;;;;;;;5.45;67.02;94914.13;1652460;85;21545;-69
2021/11/13 08:36:30;;;;;;;51.98;27.90;;;;;;;5.55;66.32;94921.41;1655803;85;20997;-67
2021/11/13 08:38:57;;;;;;;45.73;26.20;;;;;;;5.70;65.72;94916.52;1667066;85;21019;-69
2021/11/13 08:41:24;;;;;;;44.00;24.90;;;;;;;5.94;65.10;94916.80;1673816;84;20992;-69
2021/11/13 08:43:51;;;;;;;54.95;30.82;;;;;;;6.23;64.21;94916.53;1660000;84;21155;-71
2021/11/13 08:46:17;;;;;;;40.92;23.40;;;;;;;6.46;63.21;94911.84;1671673;84;21256;-70
2021/11/13 08:48:45;;;;;;;37.63;22.13;;;;;;;6.74;62.61;94905.11;1655598;85;21094;-70
2021/11/13 08:51:13;;;;;;;46.00;22.45;;;;;;;7.11;61.58;94904.96;1687094;84;21065;-70
2021/11/13 08:53:40;;;;;;;25.23;15.55;;;;;;;7.49;60.50;94902.63;1689803;84;20990;-69
2021/11/13 08:56:06;;;;;;;38.78;20.70;;;;;;;7.91;58.67;94896.22;1672849;85;21121;-67
2021/11/13 08:58:33;;;;;;;43.17;25.02;;;;;;;8.36;57.72;94895.74;1666244;84;20959;-72
2021/11/13 09:01:05;;;;;;;41.60;23.75;;;;;;;8.77;57.23;94893.91;1650369;86;21464;-68
2021/11/13 09:03:40;;;;;;;44.80;24.07;;;;;;;9.01;56.32;94888.35;1643800;86;20988;-71
2021/11/13 09:06:13;;;;;;;38.63;22.02;;;;;;;9.08;55.93;94884.81;1637189;86;20962;-69
2021/11/13 09:08:40;;;;;;;42.98;24.10;;;;;;;9.18;54.79;94886.51;1650414;85;21397;-69
2021/11/13 09:11:08;;;;;;;39.45;24.37;;;;;;;9.31;54.82;94883.80;1679255;84;21019;-69
2021/11/13 09:13:35;;;;;;;48.38;26.97;;;;;;;9.54;54.06;94889.00;1643232;85;21097;-70
2021/11/13 09:16:04;;;;;;;52.95;28.38;;;;;;;9.60;53.44;94873.55;1625011;86;21044;-70
2021/11/13 09:18:32;;;;;;;63.85;36.63;;;;;;;9.62;53.39;94873.88;1644143;86;20984;-70
2021/11/13 09:21:00;;;;;;;69.60;38.08;;;;;;;9.71;53.25;94858.88;1628778;86;21970;-69
2021/11/13 09:23:28;;;;;;;54.60;33.42;;;;;;;9.84;53.26;94865.16;1666739;84;21061;-72
2021/11/13 09:25:56;;;;;;;55.15;31.02;;;;;;;9.98;53.06;94863.34;1670422;84;21550;-67
2021/11/13 09:28:22;;;;;;;45.45;26.12;;;;;;;10.08;52.66;94861.67;1675102;84;21094;-70
2021/11/13 09:30:49;;;;;;;44.60;27.77;;;;;;;10.16;52.17;94856.72;1667443;84;21100;-69
2021/11/13 09:33:16;;;;;;;36.83;23.87;;;;;;;10.17;52.00;94849.38;1660709;85;21148;-70
2021/11/13 09:35:43;;;;;;;37.10;22.95;;;;;;;10.23;51.72;94851.77;1666966;84;21015;-72
2021/11/13 09:38:10;;;;;;;42.88;23.83;;;;;;;10.30;51.52;94851.52;1682420;84;20991;-70
2021/11/13 09:40:37;;;;;;;46.35;23.77;;;;;;;10.35;51.25;94848.83;1643174;85;21464;-68
2021/11/13 09:43:05;;;;;;;36.45;19.50;;;;;;;10.42;51.09;94856.83;1621062;88;21078;-69
2021/11/13 09:45:33;;;;;;;29.18;17.42;;;;;;;10.62;50.63;94849.86;1589871;87;21651;-69
2021/11/13 09:48:01;;;;;;;28.60;17.10;;;;;;;10.97;49.93;94849.39;1631781;86;21012;-69
2021/11/13 09:50:32;;;;;;;40.85;19.45;;;;;;;11.32;48.86;94837.11;1612916;87;21056;-68
2021/11/13 09:52:59;;;;;;;29.72;17.73;;;;;;;11.61;48.31;94841.77;1624444;87;21618;-70
2021/11/13 09:55:25;;;;;;;39.48;18.65;;;;;;;11.79;47.26;94841.86;1622446;87;21637;-69
2021/11/13 09:57:52;;;;;;;36.75;16.62;;;;;;;11.79;47.03;94834.97;1673958;84;23296;-70
2021/11/13 10:00:22;;;;;;;41.05;19.55;;;;;;;11.86;46.81;94833.31;1681510;84;21010;-70
2021/11/13 10:02:49;;;;;;;28.17;14.73;;;;;;;11.97;46.42;94838.41;1663905;84;21058;-70
2021/11/13 10:05:16;;;;;;;25.88;13.65;;;;;;;12.12;45.84;94829.73;1684015;83;21530;-69
2021/11/13 10:07:44;;;;;;;25.50;11.95;;;;;;;12.30;45.41;94827.78;1648887;85;20992;-70
2021/11/13 10:10:18;;;;;;;30.80;13.15;;;;;;;12.50;44.97;94828.77;1686909;84;21162;-70
2021/11/13 10:12:46;;;;;;;19.98;10.18;;;;;;;12.73;44.48;94824.82;1685224;84;21078;-69
2021/11/13 10:15:31;;;;;;;27.48;13.22;;;;;;;13.00;43.70;94820.70;1677027;85;21608;-70
2021/11/13 10:18:14;;;;;;;19.70;10.55;;;;;;;13.42;43.32;94817.47;1665207;85;21059;-70
2021/11/13 10:20:48;;;;;;;18.48;12.13;;;;;;;13.80;42.16;94815.67;1673026;84;20964;-69
2021/11/13 10:23:27;;;;;;;38.63;15.93;;;;;;;13.97;41.84;94809.17;1685411;84;21018;-70
2021/11/13 10:26:11;;;;;;;31.93;14.95;;;;;;;14.18;41.84;94802.65;1655889;85;21011;-72
2021/11/13 10:28:55;;;;;;;46.98;19.50;;;;;;;14.43;41.86;94798.83;1659120;85;21095;-69
2021/11/13 10:31:37;;;;;;;28.90;16.62;;;;;;;14.76;41.62;94799.52;1671505;85;20971;-71
2021/11/13 10:34:15;;;;;;;34.15;17.87;;;;;;;15.11;40.56;94796.31;1671020;84;20977;-70
2021/11/13 10:36:45;;;;;;;34.90;18.20;;;;;;;15.27;40.23;94798.03;1677174;84;21170;-73
2021/11/13 10:39:16;;;;;;;37.73;17.92;;;;;;;15.55;39.86;94793.77;1680943;84;21000;-71
2021/11/13 10:41:48;;;;;;;29.45;17.35;;;;;;;15.83;39.20;94786.70;1669478;84;21026;-70
2021/11/13 10:44:16;;;;;;;31.27;16.45;;;;;;;16.01;38.73;94783.72;1669667;84;21079;-72
2021/11/13 10:46:45;;;;;;;29.12;17.15;;;;;;;16.05;38.68;94786.27;1679248;83;21120;-70
2021/11/13 10:49:12;;;;;;;35.65;18.50;;;;;;;16.11;38.40;94782.98;1668985;84;21110;-70
2021/11/13 10:51:56;;;;;;;29.80;16.20;;;;;;;16.15;37.96;94780.16;1682332;84;21565;-72
2021/11/13 10:54:23;;;;;;;;;;;;;;;16.30;37.61;94777.48;1681735;84;21024;-70
2021/11/13 10:56:55;;;;;;;50.75;17.10;;;;;;;16.54;37.34;94775.31;1675596;84;20220;-69
2021/11/13 10:59:30;;;;;;;;;;;;;;;16.66;36.94;94770.05;1662018;85;21120;-68
2021/11/13 11:02:04;;;;;;;32.25;17.45;;;;;;;16.74;36.79;94766.98;1668527;85;21200;-72
2021/11/13 11:04:35;;;;;;;30.23;17.75;;;;;;;16.96;36.43;94766.50;1664636;85;20972;-71
2021/11/13 11:07:06;;;;;;;31.00;17.92;;;;;;;17.39;35.79;94764.87;1671700;85;21435;-71
2021/11/13 11:09:44;;;;;;;39.95;19.25;;;;;;;17.66;35.17;94753.23;1617664;85;21482;-71
2021/11/13 11:12:18;;;;;;;29.52;17.27;;;;;;;17.90;34.73;94756.50;1681165;84;21220;-70
2021/11/13 11:14:51;;;;;;;27.93;17.62;;;;;;;18.13;34.36;94750.58;1674927;84;21900;-72
2021/11/13 11:17:21;;;;;;;31.52;17.35;;;;;;;18.39;34.36;94751.92;1676812;84;21571;-71
2021/11/13 11:19:51;;;;;;;29.37;15.85;;;;;;;18.87;33.65;94746.48;1683855;84;21090;-72